sensor_id;sensor_type;location;lat;lon;timestamp;temperature;humidity
15554;DHT22;7878;44.632;10.942;2023-04-04T00:01:18;11.50;66.40
15554;DHT22;7878;44.632;10.942;2023-04-04T00:03:44;11.50;66.10
15554;DHT22;7878;44.632;10.942;2023-04-04T00:06:09;11.40;65.50
15554;DHT22;7878;44.632;10.942;2023-04-04T00:08:35;11.40;65.80
15554;DHT22;7878;44.632;10.942;2023-04-04T00:11:01;11.30;64.60
15554;DHT22;7878;44.632;10.942;2023-04-04T00:13:27;11.20;64.50
15554;DHT22;7878;44.632;10.942;2023-04-04T00:15:54;11.20;64.50
15554;DHT22;7878;44.632;10.942;2023-04-04T00:18:20;11.20;64.20
15554;DHT22;7878;44.632;10.942;2023-04-04T00:20:46;11.10;64.10
15554;DHT22;7878;44.632;10.942;2023-04-04T00:23:11;11.00;64.00
15554;DHT22;7878;44.632;10.942;2023-04-04T00:25:37;11.00;63.70
15554;DHT22;7878;44.632;10.942;2023-04-04T00:28:03;10.90;63.00
15554;DHT22;7878;44.632;10.942;2023-04-04T00:30:29;10.90;62.70
15554;DHT22;7878;44.632;10.942;2023-04-04T00:32:56;10.90;62.70
15554;DHT22;7878;44.632;10.942;2023-04-04T00:35:22;10.90;61.80
15554;DHT22;7878;44.632;10.942;2023-04-04T00:37:48;10.90;61.50
15554;DHT22;7878;44.632;10.942;2023-04-04T00:40:14;11.00;61.50
15554;DHT22;7878;44.632;10.942;2023-04-04T00:42:39;11.00;61.20
15554;DHT22;7878;44.632;10.942;2023-04-04T00:45:06;11.00;60.90
15554;DHT22;7878;44.632;10.942;2023-04-04T00:47:33;11.00;60.50
15554;DHT22;7878;44.632;10.942;2023-04-04T00:49:59;11.00;60.20
15554;DHT22;7878;44.632;10.942;2023-04-04T00:52:26;11.00;60.20
15554;DHT22;7878;44.632;10.942;2023-04-04T00:54:54;11.10;60.90
15554;DHT22;7878;44.632;10.942;2023-04-04T00:57:20;11.20;59.90
15554;DHT22;7878;44.632;10.942;2023-04-04T00:59:45;11.20;59.70
15554;DHT22;7878;44.632;10.942;2023-04-04T01:02:11;11.20;59.70
15554;DHT22;7878;44.632;10.942;2023-04-04T01:04:37;11.30;59.70
15554;DHT22;7878;44.632;10.942;2023-04-04T01:07:03;11.30;59.70
15554;DHT22;7878;44.632;10.942;2023-04-04T01:09:29;11.30;59.70
15554;DHT22;7878;44.632;10.942;2023-04-04T01:11:55;11.30;59.50
15554;DHT22;7878;44.632;10.942;2023-04-04T01:14:21;11.30;59.30
15554;DHT22;7878;44.632;10.942;2023-04-04T01:16:49;11.30;59.40
15554;DHT22;7878;44.632;10.942;2023-04-04T01:19:23;11.20;59.30
15554;DHT22;7878;44.632;10.942;2023-04-04T01:21:52;11.20;59.40
15554;DHT22;7878;44.632;10.942;2023-04-04T01:24:21;11.20;59.40
15554;DHT22;7878;44.632;10.942;2023-04-04T01:26:49;11.10;59.10
15554;DHT22;7878;44.632;10.942;2023-04-04T01:29:15;11.00;59.00
15554;DHT22;7878;44.632;10.942;2023-04-04T01:31:45;11.00;59.30
15554;DHT22;7878;44.632;10.942;2023-04-04T01:37:15;11.00;59.30
15554;DHT22;7878;44.632;10.942;2023-04-04T01:40:00;11.10;59.50
15554;DHT22;7878;44.632;10.942;2023-04-04T01:42:30;11.00;59.20
15554;DHT22;7878;44.632;10.942;2023-04-04T01:44:56;11.00;59.50
15554;DHT22;7878;44.632;10.942;2023-04-04T01:47:22;11.10;59.50
15554;DHT22;7878;44.632;10.942;2023-04-04T01:49:49;11.00;59.50
15554;DHT22;7878;44.632;10.942;2023-04-04T01:52:14;10.90;59.60
15554;DHT22;7878;44.632;10.942;2023-04-04T01:54:41;10.90;59.80
15554;DHT22;7878;44.632;10.942;2023-04-04T01:57:06;10.90;59.80
15554;DHT22;7878;44.632;10.942;2023-04-04T01:59:32;11.00;59.80
15554;DHT22;7878;44.632;10.942;2023-04-04T02:01:58;10.90;59.80
15554;DHT22;7878;44.632;10.942;2023-04-04T02:04:24;10.90;59.60
15554;DHT22;7878;44.632;10.942;2023-04-04T02:06:50;10.90;59.40
15554;DHT22;7878;44.632;10.942;2023-04-04T02:09:17;10.90;59.70
15554;DHT22;7878;44.632;10.942;2023-04-04T02:11:43;10.90;59.40
15554;DHT22;7878;44.632;10.942;2023-04-04T02:14:08;11.00;59.20
15554;DHT22;7878;44.632;10.942;2023-04-04T02:16:34;10.90;59.30
15554;DHT22;7878;44.632;10.942;2023-04-04T02:19:00;10.90;59.30
15554;DHT22;7878;44.632;10.942;2023-04-04T02:21:25;10.90;59.00
15554;DHT22;7878;44.632;10.942;2023-04-04T02:23:52;10.90;59.30
15554;DHT22;7878;44.632;10.942;2023-04-04T02:26:17;10.90;58.90
15554;DHT22;7878;44.632;10.942;2023-04-04T02:28:43;10.80;58.90
15554;DHT22;7878;44.632;10.942;2023-04-04T02:31:09;10.80;59.20
15554;DHT22;7878;44.632;10.942;2023-04-04T02:33:35;10.80;59.00
15554;DHT22;7878;44.632;10.942;2023-04-04T02:36:01;10.80;59.10
15554;DHT22;7878;44.632;10.942;2023-04-04T02:38:27;10.80;58.80
15554;DHT22;7878;44.632;10.942;2023-04-04T02:40:53;10.80;58.90
15554;DHT22;7878;44.632;10.942;2023-04-04T02:43:19;10.80;58.00
15554;DHT22;7878;44.632;10.942;2023-04-04T02:45:47;10.80;58.50
15554;DHT22;7878;44.632;10.942;2023-04-04T02:48:12;10.80;58.40
15554;DHT22;7878;44.632;10.942;2023-04-04T02:50:38;10.80;57.80
15554;DHT22;7878;44.632;10.942;2023-04-04T02:53:04;10.80;57.70
15554;DHT22;7878;44.632;10.942;2023-04-04T02:55:29;10.80;57.80
15554;DHT22;7878;44.632;10.942;2023-04-04T02:57:55;10.80;57.70
15554;DHT22;7878;44.632;10.942;2023-04-04T03:00:22;10.80;57.20
15554;DHT22;7878;44.632;10.942;2023-04-04T03:02:55;10.70;57.00
15554;DHT22;7878;44.632;10.942;2023-04-04T03:05:23;10.80;56.60
15554;DHT22;7878;44.632;10.942;2023-04-04T03:07:53;10.70;56.40
15554;DHT22;7878;44.632;10.942;2023-04-04T03:10:21;10.70;56.10
15554;DHT22;7878;44.632;10.942;2023-04-04T03:12:47;10.60;55.90
15554;DHT22;7878;44.632;10.942;2023-04-04T03:15:12;10.60;56.00
15554;DHT22;7878;44.632;10.942;2023-04-04T03:17:39;10.60;56.00
15554;DHT22;7878;44.632;10.942;2023-04-04T03:20:05;10.70;56.30
15554;DHT22;7878;44.632;10.942;2023-04-04T03:22:30;10.70;55.90
15554;DHT22;7878;44.632;10.942;2023-04-04T03:24:56;10.70;55.70
15554;DHT22;7878;44.632;10.942;2023-04-04T03:27:22;10.70;55.30
15554;DHT22;7878;44.632;10.942;2023-04-04T03:29:48;10.70;55.20
15554;DHT22;7878;44.632;10.942;2023-04-04T03:32:14;10.70;54.80
15554;DHT22;7878;44.632;10.942;2023-04-04T03:34:39;10.70;54.80
15554;DHT22;7878;44.632;10.942;2023-04-04T03:37:05;10.70;54.60
15554;DHT22;7878;44.632;10.942;2023-04-04T03:39:30;10.60;54.40
15554;DHT22;7878;44.632;10.942;2023-04-04T03:41:56;10.60;54.40
15554;DHT22;7878;44.632;10.942;2023-04-04T03:44:23;10.60;54.20
15554;DHT22;7878;44.632;10.942;2023-04-04T03:46:48;10.50;54.10
15554;DHT22;7878;44.632;10.942;2023-04-04T03:49:14;10.50;54.00
15554;DHT22;7878;44.632;10.942;2023-04-04T03:51:40;10.50;54.20
15554;DHT22;7878;44.632;10.942;2023-04-04T03:54:06;10.50;54.50
15554;DHT22;7878;44.632;10.942;2023-04-04T03:56:32;10.60;54.20
15554;DHT22;7878;44.632;10.942;2023-04-04T03:58:58;10.60;54.00
15554;DHT22;7878;44.632;10.942;2023-04-04T04:01:24;10.60;53.80
15554;DHT22;7878;44.632;10.942;2023-04-04T04:03:49;10.60;53.90
15554;DHT22;7878;44.632;10.942;2023-04-04T04:06:15;10.60;53.40
15554;DHT22;7878;44.632;10.942;2023-04-04T04:08:41;10.50;53.70
15554;DHT22;7878;44.632;10.942;2023-04-04T04:11:07;10.50;53.50
15554;DHT22;7878;44.632;10.942;2023-04-04T04:13:34;10.40;53.40
15554;DHT22;7878;44.632;10.942;2023-04-04T04:16:03;10.40;53.00
15554;DHT22;7878;44.632;10.942;2023-04-04T04:18:29;10.30;53.40
15554;DHT22;7878;44.632;10.942;2023-04-04T04:20:56;10.30;53.40
15554;DHT22;7878;44.632;10.942;2023-04-04T04:23:23;10.30;53.20
15554;DHT22;7878;44.632;10.942;2023-04-04T04:25:49;10.20;52.90
15554;DHT22;7878;44.632;10.942;2023-04-04T04:28:14;10.10;53.00
15554;DHT22;7878;44.632;10.942;2023-04-04T04:30:40;10.00;53.20
15554;DHT22;7878;44.632;10.942;2023-04-04T04:33:06;10.00;53.20
15554;DHT22;7878;44.632;10.942;2023-04-04T04:35:35;9.90;54.10
15554;DHT22;7878;44.632;10.942;2023-04-04T04:38:02;9.80;53.80
15554;DHT22;7878;44.632;10.942;2023-04-04T04:40:27;9.80;54.20
15554;DHT22;7878;44.632;10.942;2023-04-04T04:42:53;9.80;54.20
15554;DHT22;7878;44.632;10.942;2023-04-04T04:45:19;9.80;53.90
15554;DHT22;7878;44.632;10.942;2023-04-04T04:47:45;9.80;54.50
15554;DHT22;7878;44.632;10.942;2023-04-04T04:50:10;9.90;54.40
15554;DHT22;7878;44.632;10.942;2023-04-04T04:52:37;9.90;54.00
15554;DHT22;7878;44.632;10.942;2023-04-04T04:55:03;10.00;53.30
15554;DHT22;7878;44.632;10.942;2023-04-04T04:57:30;10.00;53.40
15554;DHT22;7878;44.632;10.942;2023-04-04T04:59:56;10.10;53.80
15554;DHT22;7878;44.632;10.942;2023-04-04T05:02:22;10.10;53.70
15554;DHT22;7878;44.632;10.942;2023-04-04T05:04:47;10.20;53.60
15554;DHT22;7878;44.632;10.942;2023-04-04T05:07:13;10.20;53.60
15554;DHT22;7878;44.632;10.942;2023-04-04T05:09:38;10.20;53.70
15554;DHT22;7878;44.632;10.942;2023-04-04T05:12:04;10.20;53.90
15554;DHT22;7878;44.632;10.942;2023-04-04T05:14:30;10.30;53.90
15554;DHT22;7878;44.632;10.942;2023-04-04T05:16:56;10.20;53.70
15554;DHT22;7878;44.632;10.942;2023-04-04T05:19:22;10.20;53.80
15554;DHT22;7878;44.632;10.942;2023-04-04T05:21:47;10.20;54.00
15554;DHT22;7878;44.632;10.942;2023-04-04T05:24:13;10.20;54.00
15554;DHT22;7878;44.632;10.942;2023-04-04T05:26:39;10.20;54.70
15554;DHT22;7878;44.632;10.942;2023-04-04T05:29:04;10.20;53.90
15554;DHT22;7878;44.632;10.942;2023-04-04T05:31:30;10.20;53.90
15554;DHT22;7878;44.632;10.942;2023-04-04T05:33:55;10.20;54.40
15554;DHT22;7878;44.632;10.942;2023-04-04T05:36:21;10.20;53.70
15554;DHT22;7878;44.632;10.942;2023-04-04T05:38:47;10.20;53.60
15554;DHT22;7878;44.632;10.942;2023-04-04T05:41:12;10.20;53.70
15554;DHT22;7878;44.632;10.942;2023-04-04T05:43:38;10.20;53.40
15554;DHT22;7878;44.632;10.942;2023-04-04T05:46:04;10.30;53.50
15554;DHT22;7878;44.632;10.942;2023-04-04T05:48:29;10.30;53.50
15554;DHT22;7878;44.632;10.942;2023-04-04T05:50:55;10.30;53.50
15554;DHT22;7878;44.632;10.942;2023-04-04T05:53:21;10.40;53.30
15554;DHT22;7878;44.632;10.942;2023-04-04T05:55:53;10.30;53.30
15554;DHT22;7878;44.632;10.942;2023-04-04T05:58:18;10.40;53.60
15554;DHT22;7878;44.632;10.942;2023-04-04T06:00:44;10.50;53.30
15554;DHT22;7878;44.632;10.942;2023-04-04T06:03:10;10.50;53.30
15554;DHT22;7878;44.632;10.942;2023-04-04T06:05:35;10.40;53.10
15554;DHT22;7878;44.632;10.942;2023-04-04T06:08:01;10.40;53.10
15554;DHT22;7878;44.632;10.942;2023-04-04T06:10:27;10.40;52.50
15554;DHT22;7878;44.632;10.942;2023-04-04T06:12:52;10.40;52.90
15554;DHT22;7878;44.632;10.942;2023-04-04T06:15:18;10.40;53.10
15554;DHT22;7878;44.632;10.942;2023-04-04T06:17:44;10.40;52.40
15554;DHT22;7878;44.632;10.942;2023-04-04T06:20:10;10.30;51.60
15554;DHT22;7878;44.632;10.942;2023-04-04T06:22:35;10.20;51.60
15554;DHT22;7878;44.632;10.942;2023-04-04T06:25:01;10.20;51.90
15554;DHT22;7878;44.632;10.942;2023-04-04T06:27:27;10.10;52.00
15554;DHT22;7878;44.632;10.942;2023-04-04T06:29:52;10.10;51.60
15554;DHT22;7878;44.632;10.942;2023-04-04T06:32:19;10.10;51.90
15554;DHT22;7878;44.632;10.942;2023-04-04T06:34:46;10.10;52.10
15554;DHT22;7878;44.632;10.942;2023-04-04T06:37:11;10.20;52.00
15554;DHT22;7878;44.632;10.942;2023-04-04T06:39:37;10.20;52.00
15554;DHT22;7878;44.632;10.942;2023-04-04T06:42:03;10.30;52.40
15554;DHT22;7878;44.632;10.942;2023-04-04T06:44:28;10.30;52.30
15554;DHT22;7878;44.632;10.942;2023-04-04T06:46:54;10.40;51.80
15554;DHT22;7878;44.632;10.942;2023-04-04T06:49:20;10.40;51.90
15554;DHT22;7878;44.632;10.942;2023-04-04T06:51:46;10.50;52.00
15554;DHT22;7878;44.632;10.942;2023-04-04T06:54:15;10.50;52.00
15554;DHT22;7878;44.632;10.942;2023-04-04T06:56:41;10.60;52.40
15554;DHT22;7878;44.632;10.942;2023-04-04T06:59:06;11.00;52.40
15554;DHT22;7878;44.632;10.942;2023-04-04T07:01:35;11.50;51.80
15554;DHT22;7878;44.632;10.942;2023-04-04T07:04:01;12.20;51.60
15554;DHT22;7878;44.632;10.942;2023-04-04T07:06:27;12.70;51.10
15554;DHT22;7878;44.632;10.942;2023-04-04T07:08:54;13.40;50.80
15554;DHT22;7878;44.632;10.942;2023-04-04T07:11:20;14.00;50.10
15554;DHT22;7878;44.632;10.942;2023-04-04T07:13:48;14.60;50.20
15554;DHT22;7878;44.632;10.942;2023-04-04T07:16:14;14.90;49.40
15554;DHT22;7878;44.632;10.942;2023-04-04T07:18:40;14.90;49.80
15554;DHT22;7878;44.632;10.942;2023-04-04T07:21:05;14.90;49.60
15554;DHT22;7878;44.632;10.942;2023-04-04T07:23:31;14.90;50.00
15554;DHT22;7878;44.632;10.942;2023-04-04T07:25:57;15.20;50.10
15554;DHT22;7878;44.632;10.942;2023-04-04T07:28:22;15.50;49.40
15554;DHT22;7878;44.632;10.942;2023-04-04T07:30:48;15.70;48.90
15554;DHT22;7878;44.632;10.942;2023-04-04T07:33:14;15.90;49.90
15554;DHT22;7878;44.632;10.942;2023-04-04T07:35:40;15.80;48.70
15554;DHT22;7878;44.632;10.942;2023-04-04T07:38:05;15.70;49.10
15554;DHT22;7878;44.632;10.942;2023-04-04T07:40:31;15.50;49.10
15554;DHT22;7878;44.632;10.942;2023-04-04T07:42:56;15.30;50.40
15554;DHT22;7878;44.632;10.942;2023-04-04T07:45:22;15.20;50.30
15554;DHT22;7878;44.632;10.942;2023-04-04T07:47:48;15.10;49.50
15554;DHT22;7878;44.632;10.942;2023-04-04T07:50:14;15.20;49.90
15554;DHT22;7878;44.632;10.942;2023-04-04T07:52:40;15.20;49.10
15554;DHT22;7878;44.632;10.942;2023-04-04T07:55:08;15.00;48.30
15554;DHT22;7878;44.632;10.942;2023-04-04T07:57:37;14.90;48.10
15554;DHT22;7878;44.632;10.942;2023-04-04T08:00:05;14.80;47.60
15554;DHT22;7878;44.632;10.942;2023-04-04T08:02:37;14.80;47.00
15554;DHT22;7878;44.632;10.942;2023-04-04T08:05:03;14.80;46.60
15554;DHT22;7878;44.632;10.942;2023-04-04T08:07:29;14.90;46.70
15554;DHT22;7878;44.632;10.942;2023-04-04T08:09:54;15.00;47.00
15554;DHT22;7878;44.632;10.942;2023-04-04T08:12:20;15.00;46.10
15554;DHT22;7878;44.632;10.942;2023-04-04T08:14:46;14.90;45.90
15554;DHT22;7878;44.632;10.942;2023-04-04T08:17:11;14.80;46.70
15554;DHT22;7878;44.632;10.942;2023-04-04T08:19:37;14.70;46.30
15554;DHT22;7878;44.632;10.942;2023-04-04T08:22:03;14.80;46.30
15554;DHT22;7878;44.632;10.942;2023-04-04T08:24:29;14.70;46.20
15554;DHT22;7878;44.632;10.942;2023-04-04T08:26:55;14.70;46.60
15554;DHT22;7878;44.632;10.942;2023-04-04T08:29:21;14.60;45.90
15554;DHT22;7878;44.632;10.942;2023-04-04T08:31:46;14.60;44.90
15554;DHT22;7878;44.632;10.942;2023-04-04T08:34:15;14.60;47.40
15554;DHT22;7878;44.632;10.942;2023-04-04T08:36:40;14.60;46.00
15554;DHT22;7878;44.632;10.942;2023-04-04T08:39:06;14.60;46.60
15554;DHT22;7878;44.632;10.942;2023-04-04T08:41:33;14.60;46.30
15554;DHT22;7878;44.632;10.942;2023-04-04T08:44:01;14.60;46.80
15554;DHT22;7878;44.632;10.942;2023-04-04T08:46:27;14.60;45.40
15554;DHT22;7878;44.632;10.942;2023-04-04T08:48:55;14.50;45.40
15554;DHT22;7878;44.632;10.942;2023-04-04T08:51:21;14.50;46.80
15554;DHT22;7878;44.632;10.942;2023-04-04T08:53:50;14.60;45.80
15554;DHT22;7878;44.632;10.942;2023-04-04T08:56:17;14.60;46.30
15554;DHT22;7878;44.632;10.942;2023-04-04T08:58:42;14.70;45.70
15554;DHT22;7878;44.632;10.942;2023-04-04T09:01:09;14.70;45.10
15554;DHT22;7878;44.632;10.942;2023-04-04T09:03:35;14.70;46.20
15554;DHT22;7878;44.632;10.942;2023-04-04T09:06:03;14.80;45.60
15554;DHT22;7878;44.632;10.942;2023-04-04T09:08:29;14.90;45.60
15554;DHT22;7878;44.632;10.942;2023-04-04T09:10:55;15.00;44.20
15554;DHT22;7878;44.632;10.942;2023-04-04T09:13:21;15.30;45.70
15554;DHT22;7878;44.632;10.942;2023-04-04T09:15:52;15.40;44.60
15554;DHT22;7878;44.632;10.942;2023-04-04T09:18:20;15.30;43.80
15554;DHT22;7878;44.632;10.942;2023-04-04T09:20:47;15.40;45.50
15554;DHT22;7878;44.632;10.942;2023-04-04T09:23:14;15.30;43.00
15554;DHT22;7878;44.632;10.942;2023-04-04T09:25:46;15.40;45.00
15554;DHT22;7878;44.632;10.942;2023-04-04T09:28:14;15.40;42.50
15554;DHT22;7878;44.632;10.942;2023-04-04T09:30:40;15.40;43.00
15554;DHT22;7878;44.632;10.942;2023-04-04T09:33:08;15.30;43.50
15554;DHT22;7878;44.632;10.942;2023-04-04T09:35:38;15.40;44.70
15554;DHT22;7878;44.632;10.942;2023-04-04T09:38:06;15.40;43.20
15554;DHT22;7878;44.632;10.942;2023-04-04T09:40:36;15.40;44.20
15554;DHT22;7878;44.632;10.942;2023-04-04T09:43:03;15.40;44.00
15554;DHT22;7878;44.632;10.942;2023-04-04T09:45:33;15.50;41.60
15554;DHT22;7878;44.632;10.942;2023-04-04T09:48:00;15.30;42.00
15554;DHT22;7878;44.632;10.942;2023-04-04T09:50:27;15.20;42.20
15554;DHT22;7878;44.632;10.942;2023-04-04T09:52:58;15.00;42.00
15554;DHT22;7878;44.632;10.942;2023-04-04T09:55:34;14.90;40.00
15554;DHT22;7878;44.632;10.942;2023-04-04T09:58:27;14.80;40.80
15554;DHT22;7878;44.632;10.942;2023-04-04T10:01:00;14.90;40.40
15554;DHT22;7878;44.632;10.942;2023-04-04T10:03:27;15.10;43.60
15554;DHT22;7878;44.632;10.942;2023-04-04T10:06:03;15.50;45.00
15554;DHT22;7878;44.632;10.942;2023-04-04T10:08:29;15.70;42.50
15554;DHT22;7878;44.632;10.942;2023-04-04T10:10:57;15.90;44.70
15554;DHT22;7878;44.632;10.942;2023-04-04T10:13:30;16.10;43.30
15554;DHT22;7878;44.632;10.942;2023-04-04T10:15:58;16.20;42.30
15554;DHT22;7878;44.632;10.942;2023-04-04T10:18:25;16.40;43.20
15554;DHT22;7878;44.632;10.942;2023-04-04T10:20:53;16.60;43.30
15554;DHT22;7878;44.632;10.942;2023-04-04T10:23:20;16.70;43.80
15554;DHT22;7878;44.632;10.942;2023-04-04T10:25:51;16.70;43.90
15554;DHT22;7878;44.632;10.942;2023-04-04T10:28:17;16.80;43.60
15554;DHT22;7878;44.632;10.942;2023-04-04T10:30:50;16.80;42.40
15554;DHT22;7878;44.632;10.942;2023-04-04T10:36:27;16.80;40.90
15554;DHT22;7878;44.632;10.942;2023-04-04T10:39:03;16.80;40.20
15554;DHT22;7878;44.632;10.942;2023-04-04T10:41:31;16.80;40.50
15554;DHT22;7878;44.632;10.942;2023-04-04T10:44:00;17.00;42.20
15554;DHT22;7878;44.632;10.942;2023-04-04T10:46:34;17.30;42.20
15554;DHT22;7878;44.632;10.942;2023-04-04T10:49:03;17.50;41.60
15554;DHT22;7878;44.632;10.942;2023-04-04T10:51:30;17.70;41.30
15554;DHT22;7878;44.632;10.942;2023-04-04T10:53:56;17.90;40.90
15554;DHT22;7878;44.632;10.942;2023-04-04T10:56:23;18.30;41.40
15554;DHT22;7878;44.632;10.942;2023-04-04T10:58:49;18.80;42.80
15554;DHT22;7878;44.632;10.942;2023-04-04T11:01:15;19.60;41.40
15554;DHT22;7878;44.632;10.942;2023-04-04T11:04:19;21.40;41.50
15554;DHT22;7878;44.632;10.942;2023-04-04T11:09:52;22.00;33.80
15554;DHT22;7878;44.632;10.942;2023-04-04T11:12:31;20.90;36.20
15554;DHT22;7878;44.632;10.942;2023-04-04T11:15:11;20.70;38.20
15554;DHT22;7878;44.632;10.942;2023-04-04T11:17:56;21.20;37.80
15554;DHT22;7878;44.632;10.942;2023-04-04T11:20:24;22.40;37.30
15554;DHT22;7878;44.632;10.942;2023-04-04T11:23:03;24.80;38.80
15554;DHT22;7878;44.632;10.942;2023-04-04T11:25:39;27.00;33.40
15554;DHT22;7878;44.632;10.942;2023-04-04T11:34:04;28.80;32.30
15554;DHT22;7878;44.632;10.942;2023-04-04T11:42:10;27.80;34.30
15554;DHT22;7878;44.632;10.942;2023-04-04T11:44:40;26.60;32.70
15554;DHT22;7878;44.632;10.942;2023-04-04T11:49:40;25.60;35.50
15554;DHT22;7878;44.632;10.942;2023-04-04T11:52:13;24.10;35.30
15554;DHT22;7878;44.632;10.942;2023-04-04T11:54:41;22.70;34.10
15554;DHT22;7878;44.632;10.942;2023-04-04T11:57:18;21.60;36.30
15554;DHT22;7878;44.632;10.942;2023-04-04T11:59:46;20.60;37.10
15554;DHT22;7878;44.632;10.942;2023-04-04T12:02:14;19.70;37.30
15554;DHT22;7878;44.632;10.942;2023-04-04T12:04:41;19.10;38.50
15554;DHT22;7878;44.632;10.942;2023-04-04T12:07:11;18.70;38.40
15554;DHT22;7878;44.632;10.942;2023-04-04T12:09:37;18.60;39.40
15554;DHT22;7878;44.632;10.942;2023-04-04T12:12:03;18.50;39.90
15554;DHT22;7878;44.632;10.942;2023-04-04T12:14:31;18.20;37.40
15554;DHT22;7878;44.632;10.942;2023-04-04T12:16:57;18.10;40.40
15554;DHT22;7878;44.632;10.942;2023-04-04T12:19:25;18.00;39.40
15554;DHT22;7878;44.632;10.942;2023-04-04T12:21:52;17.70;35.60
15554;DHT22;7878;44.632;10.942;2023-04-04T12:24:19;17.30;38.10
15554;DHT22;7878;44.632;10.942;2023-04-04T12:26:46;17.00;36.30
15554;DHT22;7878;44.632;10.942;2023-04-04T12:29:14;16.60;36.80
15554;DHT22;7878;44.632;10.942;2023-04-04T12:31:42;16.30;37.60
15554;DHT22;7878;44.632;10.942;2023-04-04T12:34:28;16.40;40.20
15554;DHT22;7878;44.632;10.942;2023-04-04T12:36:56;16.60;38.10
15554;DHT22;7878;44.632;10.942;2023-04-04T12:39:25;16.70;38.90
15554;DHT22;7878;44.632;10.942;2023-04-04T12:44:35;16.60;38.70
15554;DHT22;7878;44.632;10.942;2023-04-04T12:47:04;16.70;38.40
15554;DHT22;7878;44.632;10.942;2023-04-04T12:49:34;16.80;39.30
15554;DHT22;7878;44.632;10.942;2023-04-04T12:52:04;16.80;40.10
15554;DHT22;7878;44.632;10.942;2023-04-04T12:54:34;16.80;40.30
15554;DHT22;7878;44.632;10.942;2023-04-04T12:57:04;16.80;38.90
15554;DHT22;7878;44.632;10.942;2023-04-04T12:59:33;16.60;37.80
15554;DHT22;7878;44.632;10.942;2023-04-04T13:02:00;16.50;39.00
15554;DHT22;7878;44.632;10.942;2023-04-04T13:04:27;16.40;40.30
15554;DHT22;7878;44.632;10.942;2023-04-04T13:06:53;16.50;39.60
15554;DHT22;7878;44.632;10.942;2023-04-04T13:09:20;16.30;37.80
15554;DHT22;7878;44.632;10.942;2023-04-04T13:12:05;16.00;37.30
15554;DHT22;7878;44.632;10.942;2023-04-04T13:17:22;16.00;37.30
15554;DHT22;7878;44.632;10.942;2023-04-04T13:19:48;16.00;40.50
15554;DHT22;7878;44.632;10.942;2023-04-04T13:22:14;16.10;39.90
15554;DHT22;7878;44.632;10.942;2023-04-04T13:24:39;15.90;38.80
15554;DHT22;7878;44.632;10.942;2023-04-04T13:27:05;15.80;38.60
15554;DHT22;7878;44.632;10.942;2023-04-04T13:29:31;15.70;37.40
15554;DHT22;7878;44.632;10.942;2023-04-04T13:31:57;15.50;38.20
15554;DHT22;7878;44.632;10.942;2023-04-04T13:34:23;15.60;38.90
15554;DHT22;7878;44.632;10.942;2023-04-04T13:36:49;15.60;38.60
15554;DHT22;7878;44.632;10.942;2023-04-04T13:39:15;15.70;39.30
15554;DHT22;7878;44.632;10.942;2023-04-04T13:41:41;15.70;39.00
15554;DHT22;7878;44.632;10.942;2023-04-04T13:44:07;15.60;39.40
15554;DHT22;7878;44.632;10.942;2023-04-04T13:46:32;15.60;37.90
15554;DHT22;7878;44.632;10.942;2023-04-04T13:48:58;15.40;37.30
15554;DHT22;7878;44.632;10.942;2023-04-04T13:51:24;15.30;38.30
15554;DHT22;7878;44.632;10.942;2023-04-04T13:53:51;15.20;39.10
15554;DHT22;7878;44.632;10.942;2023-04-04T13:56:16;15.20;38.60
15554;DHT22;7878;44.632;10.942;2023-04-04T13:58:42;15.10;38.70
15554;DHT22;7878;44.632;10.942;2023-04-04T14:01:08;15.00;39.00
15554;DHT22;7878;44.632;10.942;2023-04-04T14:03:34;15.00;38.70
15554;DHT22;7878;44.632;10.942;2023-04-04T14:06:01;14.90;38.00
15554;DHT22;7878;44.632;10.942;2023-04-04T14:08:27;14.90;38.20
15554;DHT22;7878;44.632;10.942;2023-04-04T14:10:52;14.90;39.70
15554;DHT22;7878;44.632;10.942;2023-04-04T14:13:18;15.00;40.20
15554;DHT22;7878;44.632;10.942;2023-04-04T14:15:44;15.10;39.70
15554;DHT22;7878;44.632;10.942;2023-04-04T14:18:10;15.20;39.60
15554;DHT22;7878;44.632;10.942;2023-04-04T14:20:37;15.10;39.10
15554;DHT22;7878;44.632;10.942;2023-04-04T14:23:02;15.20;40.40
15554;DHT22;7878;44.632;10.942;2023-04-04T14:25:28;15.20;39.30
15554;DHT22;7878;44.632;10.942;2023-04-04T14:27:54;15.10;39.70
15554;DHT22;7878;44.632;10.942;2023-04-04T14:30:20;15.20;40.90
15554;DHT22;7878;44.632;10.942;2023-04-04T14:32:46;15.30;39.50
15554;DHT22;7878;44.632;10.942;2023-04-04T14:35:11;15.30;40.40
15554;DHT22;7878;44.632;10.942;2023-04-04T14:37:37;15.30;39.90
15554;DHT22;7878;44.632;10.942;2023-04-04T14:40:04;15.20;40.20
15554;DHT22;7878;44.632;10.942;2023-04-04T14:42:30;15.20;41.10
15554;DHT22;7878;44.632;10.942;2023-04-04T14:44:59;15.30;40.00
15554;DHT22;7878;44.632;10.942;2023-04-04T14:47:26;15.20;39.00
15554;DHT22;7878;44.632;10.942;2023-04-04T14:49:52;15.20;40.30
15554;DHT22;7878;44.632;10.942;2023-04-04T14:52:18;15.20;39.80
15554;DHT22;7878;44.632;10.942;2023-04-04T14:54:43;15.30;40.30
15554;DHT22;7878;44.632;10.942;2023-04-04T14:57:09;15.30;39.00
15554;DHT22;7878;44.632;10.942;2023-04-04T14:59:34;15.10;39.30
15554;DHT22;7878;44.632;10.942;2023-04-04T15:02:01;15.00;40.70
15554;DHT22;7878;44.632;10.942;2023-04-04T15:04:26;15.00;40.50
15554;DHT22;7878;44.632;10.942;2023-04-04T15:06:52;15.10;40.10
15554;DHT22;7878;44.632;10.942;2023-04-04T15:09:17;15.20;40.80
15554;DHT22;7878;44.632;10.942;2023-04-04T15:11:43;15.20;40.20
15554;DHT22;7878;44.632;10.942;2023-04-04T15:14:09;15.30;40.30
15554;DHT22;7878;44.632;10.942;2023-04-04T15:16:35;15.20;40.90
15554;DHT22;7878;44.632;10.942;2023-04-04T15:19:00;15.20;40.00
15554;DHT22;7878;44.632;10.942;2023-04-04T15:21:29;15.30;40.40
15554;DHT22;7878;44.632;10.942;2023-04-04T15:23:56;15.20;39.60
15554;DHT22;7878;44.632;10.942;2023-04-04T15:26:21;15.20;40.40
15554;DHT22;7878;44.632;10.942;2023-04-04T15:28:47;15.30;40.90
15554;DHT22;7878;44.632;10.942;2023-04-04T15:31:14;15.20;39.60
15554;DHT22;7878;44.632;10.942;2023-04-04T15:33:40;15.20;40.20
15554;DHT22;7878;44.632;10.942;2023-04-04T15:36:05;15.20;40.10
15554;DHT22;7878;44.632;10.942;2023-04-04T15:38:31;15.20;40.20
15554;DHT22;7878;44.632;10.942;2023-04-04T15:40:57;15.20;40.70
15554;DHT22;7878;44.632;10.942;2023-04-04T15:43:23;15.20;41.20
15554;DHT22;7878;44.632;10.942;2023-04-04T15:45:49;15.30;40.40
15554;DHT22;7878;44.632;10.942;2023-04-04T15:48:14;15.20;38.80
15554;DHT22;7878;44.632;10.942;2023-04-04T15:50:40;15.10;40.00
15554;DHT22;7878;44.632;10.942;2023-04-04T15:53:06;15.10;40.50
15554;DHT22;7878;44.632;10.942;2023-04-04T15:55:32;15.10;40.00
15554;DHT22;7878;44.632;10.942;2023-04-04T15:57:57;15.10;39.80